SBOSBO EAS / LESO
Speedbird OnlineSpeedbird Online EAS / LESO

San Sebastian Airport
21:02 14.9°C

Location San Sebastian, Spain
Latitude: 43.35649871826172
Longitude: -1.7906099557876587
Web Airport Website | Wikipedia
Altitude 5 Meter / 16 Feet
Distance 917 KM / 570 Miles
from London.
Time Zone UTC +2 hours (Europe/Madrid)
Codes IATA: EAS
ICAO: LESO
Currency £1 equals EUR 1.12
Runways
RunwayLength (m)Surface
041457Asphalt
221457Asphalt
Radio
TypeDescriptionFrequency
TWRSAN SEBASTIAN TOWER119.85
Live ATC
METAR LESO 241830Z 22006KT 200V260 9999 FEW025 SCT032 15/13 Q1016
TAF TAF LESO 241700Z 2418/2518 22005KT 9999 SCT015 BKN030 TX19/2513Z TN13/2505Z PROB40 TEMPO 2418/2518 30010KT 3000 RA SHRA BKN010 SCT020TCU PROB30 TEMPO 2418/2513 1500 +RA +SHRA SCT020TCU PROB30 TEMPO 2418/2421 TS SCT020CB
Weather As Of 24 Sep 2022 21:02
Description Scattered clouds
Wind 11 km/h from South-West (220°)
Cloud Cover 40%
Precipitation Rain: none, Snow: none
Sunrise 07:56
Sunset 20:02
Rotations During the last 90 days there were
17 flights from LCY
17 flights to LCY


© 2017-2022 Speedbird Online